createdAt,value
2023-04-30T00:00:42.041Z,99550.03
2023-04-30T00:01:44.356Z,99550.25
2023-04-30T00:02:46.563Z,99556.41
2023-04-30T00:03:48.715Z,99556.84
2023-04-30T00:04:50.905Z,99553.09
2023-04-30T00:05:52.913Z,99558.41
2023-04-30T00:06:55.753Z,99560.13
2023-04-30T00:07:57.677Z,99561.13
2023-04-30T00:08:59.696Z,99561.56
2023-04-30T00:10:01.604Z,99562.59
2023-04-30T00:11:03.456Z,99555.28
2023-04-30T00:12:06.010Z,99561.69
2023-04-30T00:13:08.486Z,99553.22
2023-04-30T00:14:10.541Z,99557.16
2023-04-30T00:15:12.496Z,99557.63
2023-04-30T00:16:14.417Z,99559.69
2023-04-30T00:17:16.783Z,99557.44
2023-04-30T00:18:18.645Z,99555.56
2023-04-30T00:19:20.852Z,99555.12
2023-04-30T00:20:22.805Z,99550.94
2023-04-30T00:21:25.209Z,99556.44
2023-04-30T00:22:27.340Z,99556.66
2023-04-30T00:23:29.200Z,99552.34
2023-04-30T00:24:31.076Z,99554.50
2023-04-30T00:25:32.983Z,99554.28
2023-04-30T00:26:34.849Z,99555.31
2023-04-30T00:27:38.795Z,99558.75
2023-04-30T00:28:42.239Z,99555.12
2023-04-30T00:29:44.134Z,99556.72
2023-04-30T00:30:46.014Z,99562.31
2023-04-30T00:31:47.963Z,99558.53
2023-04-30T00:32:50.226Z,99558.66
2023-04-30T00:33:52.356Z,99567.56
2023-04-30T00:34:54.324Z,99558.31
2023-04-30T00:35:56.479Z,99558.78
2023-04-30T00:36:58.355Z,99559.47
2023-04-30T00:38:00.660Z,99557.06
2023-04-30T00:39:02.574Z,99558.44
2023-04-30T00:40:04.904Z,99557.41
2023-04-30T00:41:06.799Z,99563.66
2023-04-30T00:42:08.879Z,99563.19
2023-04-30T00:43:11.021Z,99554.31
2023-04-30T00:44:12.904Z,99555.91
2023-04-30T00:45:14.897Z,99559.91
2023-04-30T00:46:16.883Z,99564.84
2023-04-30T00:47:18.818Z,99556.84
2023-04-30T00:48:21.523Z,99556.63
2023-04-30T00:49:23.648Z,99558.91
2023-04-30T00:50:25.725Z,99560.28
2023-04-30T00:51:29.203Z,99564.13
2023-04-30T00:52:31.320Z,99559.25
2023-04-30T00:53:34.898Z,99562.44
2023-04-30T00:54:37.396Z,99565.06
2023-04-30T00:55:41.327Z,99568.47
2023-04-30T00:56:43.212Z,99562.91
2023-04-30T00:57:45.066Z,99562.31
2023-04-30T00:58:48.834Z,99561.06
2023-04-30T00:59:51.506Z,99561.53
2023-04-30T01:00:53.745Z,99557.06
2023-04-30T01:01:56.215Z,99559.37
2023-04-30T01:02:58.293Z,99558.78
2023-04-30T01:04:01.101Z,99556.41
2023-04-30T01:05:04.021Z,99559.13
2023-04-30T01:06:07.664Z,99554.75
2023-04-30T01:07:09.625Z,99554.06
2023-04-30T01:08:11.914Z,99554.31
2023-04-30T01:09:14.168Z,99550.69
2023-04-30T01:10:16.857Z,99557.28
2023-04-30T01:11:49.998Z,99555.59
2023-04-30T01:13:09.883Z,99551.16
2023-04-30T01:14:29.216Z,99555.09
2023-04-30T01:15:46.899Z,99553.13
2023-04-30T01:17:04.656Z,99549.75
2023-04-30T01:18:13.330Z,99550.94
2023-04-30T01:19:30.726Z,99555.97
2023-04-30T01:20:33.975Z,99553.28
2023-04-30T01:21:41.618Z,99549.19
2023-04-30T01:22:55.155Z,99550.19
2023-04-30T01:24:23.767Z,99554.34
2023-04-30T01:25:40.878Z,99554.44
2023-04-30T01:27:07.749Z,99567.03
2023-04-30T01:28:11.635Z,99554.94
2023-04-30T01:29:19.110Z,99557.72
2023-04-30T01:30:22.705Z,99556.56
2023-04-30T01:31:24.670Z,99553.56
2023-04-30T01:32:29.135Z,99547.59
2023-04-30T01:33:31.025Z,99552.31
2023-04-30T01:34:32.908Z,99557.56
2023-04-30T01:36:06.434Z,99552.09
2023-04-30T01:37:30.074Z,99554.34
2023-04-30T01:38:44.230Z,99561.09
2023-04-30T01:40:07.579Z,99554.44
2023-04-30T01:41:21.335Z,99554.84
2023-04-30T01:42:30.945Z,99555.69
2023-04-30T01:43:54.060Z,99555.19
2023-04-30T01:45:12.710Z,99560.66
2023-04-30T01:46:24.533Z,99558.06
2023-04-30T01:47:26.365Z,99559.72
2023-04-30T01:48:34.366Z,99563.72
2023-04-30T01:49:56.215Z,99562.84
2023-04-30T01:51:43.207Z,99555.69
2023-04-30T01:52:53.423Z,99563.88
2023-04-30T01:54:01.882Z,99558.72
2023-04-30T01:55:29.940Z,99553.38
2023-04-30T01:56:38.018Z,99556.69
2023-04-30T01:57:50.739Z,99557.56
2023-04-30T01:58:53.761Z,99554.97
2023-04-30T01:59:56.360Z,99557.59
2023-04-30T02:00:58.937Z,99559.53
2023-04-30T02:02:01.373Z,99557.13
2023-04-30T02:03:03.438Z,99548.81
2023-04-30T02:04:05.882Z,99553.81
2023-04-30T02:05:08.262Z,99549.28
2023-04-30T02:06:10.325Z,99551.03
2023-04-30T02:07:27.470Z,99542.81
2023-04-30T02:08:29.421Z,99543.97
2023-04-30T02:09:31.410Z,99543.00
2023-04-30T02:10:33.349Z,99547.59
2023-04-30T02:11:35.439Z,99543.34
2023-04-30T02:12:37.809Z,99543.69
2023-04-30T02:13:40.160Z,99545.63
2023-04-30T02:14:42.111Z,99547.94
2023-04-30T02:15:44.444Z,99552.25
2023-04-30T02:16:46.422Z,99546.56
2023-04-30T02:17:48.470Z,99546.09
2023-04-30T02:18:50.910Z,99551.31
2023-04-30T02:19:53.066Z,99551.78
2023-04-30T02:20:55.418Z,99555.78
2023-04-30T02:21:57.285Z,99550.44
2023-04-30T02:22:59.404Z,99551.34
2023-04-30T02:24:01.294Z,99548.03
2023-04-30T02:25:04.040Z,99555.22
2023-04-30T02:26:06.235Z,99548.81
2023-04-30T02:27:08.757Z,99550.16
2023-04-30T02:28:10.950Z,99550.66
2023-04-30T02:29:12.860Z,99549.78
2023-04-30T02:30:14.858Z,99550.75
2023-04-30T02:31:17.095Z,99543.22
2023-04-30T02:32:20.836Z,99545.50
2023-04-30T02:33:22.898Z,99544.59
2023-04-30T02:34:24.948Z,99545.28
2023-04-30T02:35:26.813Z,99542.47
2023-04-30T02:36:29.147Z,99550.38
2023-04-30T02:37:30.977Z,99548.91
2023-04-30T02:38:32.826Z,99553.13
2023-04-30T02:39:34.771Z,99556.88
2023-04-30T02:40:36.609Z,99555.84
2023-04-30T02:41:38.772Z,99556.28
2023-04-30T02:42:40.773Z,99563.28
2023-04-30T02:43:42.720Z,99559.97
2023-04-30T02:44:44.783Z,99555.97
2023-04-30T02:45:46.764Z,99558.97
2023-04-30T02:46:49.618Z,99560.75
2023-04-30T02:47:51.530Z,99555.72
2023-04-30T02:48:53.397Z,99562.56
2023-04-30T02:49:55.535Z,99555.19
2023-04-30T02:50:57.707Z,99549.03
2023-04-30T02:51:59.980Z,99556.09
2023-04-30T02:53:01.946Z,99554.00
2023-04-30T02:54:03.858Z,99559.69
2023-04-30T02:55:06.619Z,99551.59
2023-04-30T02:56:08.528Z,99550.38
2023-04-30T02:57:10.830Z,99553.41
2023-04-30T02:58:13.547Z,99556.47
2023-04-30T02:59:15.528Z,99563.25
2023-04-30T03:00:17.784Z,99567.81
2023-04-30T03:01:20.620Z,99568.66
2023-04-30T03:02:23.742Z,99567.50
2023-04-30T03:03:26.304Z,99573.97
2023-04-30T03:04:28.263Z,99559.75
2023-04-30T03:05:30.357Z,99569.69
2023-04-30T03:06:33.076Z,99563.50
2023-04-30T03:07:35.357Z,99570.69
2023-04-30T03:08:37.275Z,99575.38
2023-04-30T03:09:39.232Z,99572.06
2023-04-30T03:10:41.189Z,99571.12
2023-04-30T03:11:43.575Z,99566.69
2023-04-30T03:12:45.817Z,99569.75
2023-04-30T03:13:51.697Z,99563.28
2023-04-30T03:14:53.740Z,99576.09
2023-04-30T03:16:04.686Z,99570.50
2023-04-30T03:17:06.997Z,99568.97
2023-04-30T03:18:10.541Z,99575.84
2023-04-30T03:19:12.490Z,99568.91
2023-04-30T03:20:14.721Z,99568.63
2023-04-30T03:21:16.652Z,99578.72
2023-04-30T03:22:23.758Z,99575.91
2023-04-30T03:23:28.412Z,99574.13
2023-04-30T03:24:30.830Z,99571.00
2023-04-30T03:25:33.309Z,99576.47
2023-04-30T03:26:35.352Z,99566.59
2023-04-30T03:27:37.212Z,99563.81
2023-04-30T03:28:39.489Z,99569.34
2023-04-30T03:29:41.381Z,99571.47
2023-04-30T03:30:43.252Z,99564.53
2023-04-30T03:31:45.109Z,99562.94
2023-04-30T03:32:47.067Z,99563.25
2023-04-30T03:33:49.366Z,99559.53
2023-04-30T03:34:51.941Z,99562.09
2023-04-30T03:35:53.997Z,99558.81
2023-04-30T03:36:55.971Z,99561.44
2023-04-30T03:37:57.975Z,99570.28
2023-04-30T03:39:00.541Z,99577.41
2023-04-30T03:40:02.462Z,99584.53
2023-04-30T03:41:04.475Z,99581.84
2023-04-30T03:42:06.361Z,99576.75
2023-04-30T03:43:08.316Z,99574.87
2023-04-30T03:44:15.806Z,99567.91
2023-04-30T03:45:18.185Z,99570.22
2023-04-30T03:46:20.223Z,99567.19
2023-04-30T03:47:23.256Z,99559.50
2023-04-30T03:48:25.383Z,99560.22
2023-04-30T03:49:28.234Z,99561.22
2023-04-30T03:50:30.623Z,99561.38
2023-04-30T03:51:32.898Z,99560.34
2023-04-30T03:52:34.932Z,99554.62
2023-04-30T03:53:37.190Z,99552.16
2023-04-30T03:54:39.402Z,99548.75
2023-04-30T03:55:42.451Z,99555.91
2023-04-30T03:56:44.525Z,99563.12
2023-04-30T03:57:46.738Z,99580.13
2023-04-30T03:58:48.717Z,99576.84
2023-04-30T03:59:51.320Z,99575.97
2023-04-30T04:00:53.709Z,99578.69
2023-04-30T04:01:56.180Z,99579.09
2023-04-30T04:02:59.576Z,99581.00
2023-04-30T04:04:02.184Z,99585.12
2023-04-30T04:05:05.012Z,99589.63
2023-04-30T04:06:07.155Z,99590.72
2023-04-30T04:07:11.535Z,99589.84
2023-04-30T04:08:14.706Z,99592.69
2023-04-30T04:09:16.905Z,99595.22
2023-04-30T04:10:18.848Z,99595.53
2023-04-30T04:11:20.908Z,99596.31
2023-04-30T04:12:23.691Z,99586.94
2023-04-30T04:13:25.595Z,99588.25
2023-04-30T04:14:27.577Z,99587.97
2023-04-30T04:15:29.475Z,99596.69
2023-04-30T04:16:31.520Z,99598.13
2023-04-30T04:17:33.777Z,99593.03
2023-04-30T04:18:36.529Z,99596.09
2023-04-30T04:19:38.432Z,99605.25
2023-04-30T04:20:40.456Z,99597.81
2023-04-30T04:21:42.403Z,99599.19
2023-04-30T04:22:47.077Z,99599.66
2023-04-30T04:23:49.005Z,99602.41
2023-04-30T04:24:51.541Z,99600.97
2023-04-30T04:25:54.059Z,99601.88
2023-04-30T04:26:56.295Z,99608.31
2023-04-30T04:27:58.440Z,99605.19
2023-04-30T04:29:00.542Z,99607.13
2023-04-30T04:30:03.670Z,99612.47
2023-04-30T04:31:06.523Z,99610.00
2023-04-30T04:32:10.302Z,99604.34
2023-04-30T04:33:13.121Z,99605.72
2023-04-30T04:34:15.071Z,99606.97
2023-04-30T04:35:18.949Z,99612.44
2023-04-30T04:36:20.895Z,99607.34
2023-04-30T04:37:23.328Z,99608.34
2023-04-30T04:38:26.256Z,99612.37
2023-04-30T04:39:28.455Z,99611.03
2023-04-30T04:40:31.746Z,99616.03
2023-04-30T04:41:35.494Z,99623.09
2023-04-30T04:42:38.776Z,99612.19
2023-04-30T04:43:41.238Z,99623.22
2023-04-30T04:44:43.973Z,99622.09
2023-04-30T04:45:47.858Z,99619.72
2023-04-30T04:46:54.287Z,99623.41
2023-04-30T04:47:56.336Z,99623.97
2023-04-30T04:48:58.680Z,99624.06
2023-04-30T04:50:00.689Z,99630.59
2023-04-30T04:51:02.604Z,99629.31
2023-04-30T04:52:05.453Z,99627.84
2023-04-30T04:53:07.310Z,99638.13
2023-04-30T04:54:09.833Z,99633.56
2023-04-30T04:55:12.274Z,99638.34
2023-04-30T04:56:14.179Z,99639.03
2023-04-30T04:57:16.385Z,99640.63
2023-04-30T04:58:18.267Z,99640.72
2023-04-30T04:59:21.021Z,99635.37
2023-04-30T05:00:23.714Z,99639.03
2023-04-30T05:01:26.035Z,99632.28
2023-04-30T05:02:28.019Z,99639.81
2023-04-30T05:03:31.714Z,99634.91
2023-04-30T05:04:33.981Z,99639.47
2023-04-30T05:05:35.925Z,99643.00
2023-04-30T05:06:38.285Z,99636.38
2023-04-30T05:07:40.395Z,99634.53
2023-04-30T05:08:43.457Z,99636.56
2023-04-30T05:09:46.924Z,99639.28
2023-04-30T05:10:49.155Z,99637.22
2023-04-30T05:11:51.013Z,99636.28
2023-04-30T05:12:52.891Z,99636.94
2023-04-30T05:13:54.719Z,99642.37
2023-04-30T05:14:56.902Z,99638.75
2023-04-30T05:15:58.874Z,99642.66
2023-04-30T05:17:00.821Z,99642.66
2023-04-30T05:18:02.839Z,99642.00
2023-04-30T05:19:04.921Z,99636.75
2023-04-30T05:20:07.702Z,99649.16
2023-04-30T05:21:09.601Z,99644.22
2023-04-30T05:22:11.492Z,99649.00
2023-04-30T05:23:13.420Z,99655.69
2023-04-30T05:24:15.289Z,99648.78
2023-04-30T05:25:17.486Z,99649.41
2023-04-30T05:26:19.376Z,99653.66
2023-04-30T05:27:21.358Z,99654.81
2023-04-30T05:28:23.184Z,99649.34
2023-04-30T05:29:25.129Z,99652.47
2023-04-30T05:30:27.795Z,99648.34
2023-04-30T05:31:29.930Z,99653.69
2023-04-30T05:32:31.977Z,99652.06
2023-04-30T05:33:34.632Z,99647.12
2023-04-30T05:34:36.624Z,99649.84
2023-04-30T05:35:38.793Z,99651.25
2023-04-30T05:36:42.494Z,99652.97
2023-04-30T05:37:45.742Z,99650.63
2023-04-30T05:38:47.580Z,99646.47
2023-04-30T05:39:54.314Z,99648.28
2023-04-30T05:40:56.877Z,99652.69
2023-04-30T05:41:58.743Z,99646.94
2023-04-30T05:43:00.661Z,99653.31
2023-04-30T05:44:04.974Z,99650.75
2023-04-30T05:45:08.354Z,99651.06
2023-04-30T05:46:10.676Z,99650.44
2023-04-30T05:47:12.561Z,99658.06
2023-04-30T05:48:14.510Z,99657.22
2023-04-30T05:49:16.406Z,99657.31
2023-04-30T05:50:18.344Z,99656.53
2023-04-30T05:51:20.511Z,99658.94
2023-04-30T05:52:22.354Z,99654.59
2023-04-30T05:53:24.173Z,99662.44
2023-04-30T05:54:26.034Z,99660.72
2023-04-30T05:55:27.902Z,99657.72
2023-04-30T05:56:30.052Z,99659.28
2023-04-30T05:57:34.461Z,99662.53
2023-04-30T05:58:36.313Z,99660.16
2023-04-30T05:59:38.188Z,99662.16
2023-04-30T06:00:40.318Z,99650.66
2023-04-30T06:01:43.053Z,99660.69
2023-04-30T06:02:45.044Z,99659.53
2023-04-30T06:03:47.408Z,99658.69
2023-04-30T06:04:49.351Z,99661.56
2023-04-30T06:05:51.329Z,99664.63
2023-04-30T06:06:53.545Z,99662.16
2023-04-30T06:07:55.410Z,99658.37
2023-04-30T06:08:57.955Z,99659.16
2023-04-30T06:09:59.787Z,99653.22
2023-04-30T06:11:03.793Z,99657.28
2023-04-30T06:12:06.113Z,99657.63
2023-04-30T06:13:08.059Z,99663.63
2023-04-30T06:14:10.733Z,99655.56
2023-04-30T06:15:12.675Z,99659.22
2023-04-30T06:16:14.621Z,99658.75
2023-04-30T06:17:16.861Z,99658.81
2023-04-30T06:18:18.799Z,99661.34
2023-04-30T06:19:20.961Z,99657.72
2023-04-30T06:20:23.023Z,99661.31
2023-04-30T06:21:26.160Z,99661.59
2023-04-30T06:22:30.191Z,99651.41
2023-04-30T06:23:32.219Z,99664.06
2023-04-30T06:24:34.057Z,99658.00
2023-04-30T06:25:39.387Z,99653.06
2023-04-30T06:26:41.250Z,99661.47
2023-04-30T06:27:43.741Z,99656.94
2023-04-30T06:28:46.590Z,99667.50
2023-04-30T06:29:48.454Z,99658.75
2023-04-30T06:30:51.851Z,99662.22
2023-04-30T06:31:53.863Z,99659.19
2023-04-30T06:32:56.402Z,99653.91
2023-04-30T06:33:58.324Z,99665.00
2023-04-30T06:35:00.325Z,99655.47
2023-04-30T06:36:02.195Z,99653.41
2023-04-30T06:37:04.088Z,99661.53
2023-04-30T06:38:06.440Z,99658.13
2023-04-30T06:39:08.319Z,99660.03
2023-04-30T06:40:10.408Z,99656.59
2023-04-30T06:41:12.400Z,99661.31
2023-04-30T06:42:14.222Z,99662.47
2023-04-30T06:43:17.300Z,99659.06
2023-04-30T06:44:19.312Z,99661.97
2023-04-30T06:45:21.293Z,99658.81
2023-04-30T06:46:23.224Z,99660.69
2023-04-30T06:47:25.135Z,99654.31
2023-04-30T06:48:27.320Z,99658.56
2023-04-30T06:49:29.181Z,99656.72
2023-04-30T06:50:31.136Z,99664.66
2023-04-30T06:51:33.124Z,99655.66
2023-04-30T06:52:35.134Z,99663.63
2023-04-30T06:53:37.302Z,99659.34
2023-04-30T06:54:39.225Z,99666.22
2023-04-30T06:55:42.744Z,99664.13
2023-04-30T06:56:45.241Z,99663.03
2023-04-30T06:57:47.281Z,99657.50
2023-04-30T06:58:50.390Z,99652.47
2023-04-30T06:59:52.568Z,99658.31
2023-04-30T07:00:54.704Z,99654.34
2023-04-30T07:01:56.699Z,99655.69
2023-04-30T07:03:02.457Z,99650.63
2023-04-30T07:04:06.103Z,99651.94
2023-04-30T07:05:09.393Z,99654.59
2023-04-30T07:06:11.312Z,99653.50
2023-04-30T07:07:13.292Z,99658.97
2023-04-30T07:08:15.216Z,99661.03
2023-04-30T07:09:17.377Z,99664.47
2023-04-30T07:10:19.241Z,99662.91
2023-04-30T07:11:21.299Z,99657.09
2023-04-30T07:12:23.326Z,99661.31
2023-04-30T07:13:25.266Z,99653.47
2023-04-30T07:14:27.552Z,99653.41
2023-04-30T07:15:29.378Z,99653.72
2023-04-30T07:16:32.645Z,99659.16
2023-04-30T07:17:35.289Z,99663.88
2023-04-30T07:18:38.011Z,99660.19
2023-04-30T07:19:40.201Z,99658.34
2023-04-30T07:20:42.112Z,99655.88
2023-04-30T07:21:43.969Z,99655.00
2023-04-30T07:22:46.209Z,99665.50
2023-04-30T07:23:48.708Z,99664.91
2023-04-30T07:24:50.892Z,99660.53
2023-04-30T07:25:52.795Z,99664.13
2023-04-30T07:26:54.679Z,99662.16
2023-04-30T07:27:56.537Z,99662.56
2023-04-30T07:28:58.377Z,99653.59
2023-04-30T07:30:00.498Z,99663.09
2023-04-30T07:31:02.385Z,99658.22
2023-04-30T07:32:04.918Z,99658.87
2023-04-30T07:33:08.433Z,99653.16
2023-04-30T07:34:10.362Z,99661.31
2023-04-30T07:35:12.602Z,99659.22
2023-04-30T07:36:14.571Z,99659.69
2023-04-30T07:37:16.462Z,99670.06
2023-04-30T07:38:19.072Z,99664.28
2023-04-30T07:39:20.934Z,99672.78
2023-04-30T07:40:34.874Z,99673.44
2023-04-30T07:41:37.574Z,99671.25
2023-04-30T07:42:42.385Z,99672.69
2023-04-30T07:43:44.578Z,99668.69
2023-04-30T07:44:46.564Z,99667.09
2023-04-30T07:45:50.068Z,99658.69
2023-04-30T07:46:51.976Z,99662.94
2023-04-30T07:47:53.945Z,99666.06
2023-04-30T07:48:56.063Z,99663.34
2023-04-30T07:49:58.157Z,99670.94
2023-04-30T07:51:00.422Z,99675.44
2023-04-30T07:52:02.550Z,99666.81
2023-04-30T07:53:07.179Z,99665.56
2023-04-30T07:54:09.061Z,99672.44
2023-04-30T07:55:13.550Z,99675.38
2023-04-30T07:56:16.365Z,99664.69
2023-04-30T07:57:19.195Z,99673.47
2023-04-30T07:58:21.086Z,99673.06
2023-04-30T07:59:24.522Z,99669.00
2023-04-30T08:00:26.765Z,99668.53
2023-04-30T08:01:29.196Z,99676.62
2023-04-30T08:02:31.189Z,99668.63
2023-04-30T08:03:33.450Z,99675.38
2023-04-30T08:04:35.777Z,99672.09
2023-04-30T08:05:37.873Z,99679.03
2023-04-30T08:06:40.213Z,99669.25
2023-04-30T08:07:42.151Z,99677.16
2023-04-30T08:08:44.010Z,99673.22
2023-04-30T08:09:45.901Z,99668.25
2023-04-30T08:10:47.804Z,99675.94
2023-04-30T08:11:50.065Z,99682.03
2023-04-30T08:12:53.129Z,99684.22
2023-04-30T08:13:55.672Z,99678.66
2023-04-30T08:15:04.093Z,99681.41
2023-04-30T08:16:06.078Z,99684.12
2023-04-30T08:17:08.265Z,99682.94
2023-04-30T08:18:10.177Z,99687.50
2023-04-30T08:19:12.094Z,99683.47
2023-04-30T08:20:13.962Z,99672.47
2023-04-30T08:21:16.433Z,99674.50
2023-04-30T08:22:18.577Z,99671.06
2023-04-30T08:23:20.435Z,99672.91
2023-04-30T08:24:22.288Z,99679.69
2023-04-30T08:25:24.284Z,99674.69
2023-04-30T08:26:26.192Z,99673.44
2023-04-30T08:27:28.629Z,99674.91
2023-04-30T08:28:31.003Z,99676.84
2023-04-30T08:29:32.856Z,99670.59
2023-04-30T08:30:34.705Z,99672.31
2023-04-30T08:31:37.312Z,99674.38
2023-04-30T08:32:39.664Z,99671.31
2023-04-30T08:33:41.665Z,99672.59
2023-04-30T08:34:43.713Z,99665.50
2023-04-30T08:35:45.693Z,99663.84
2023-04-30T08:36:47.512Z,99671.16
2023-04-30T08:37:50.244Z,99670.78
2023-04-30T08:38:52.142Z,99671.97
2023-04-30T08:39:54.631Z,99668.63
2023-04-30T08:41:12.186Z,99676.31
2023-04-30T08:42:15.222Z,99671.22
2023-04-30T08:43:19.974Z,99666.34
2023-04-30T08:44:26.682Z,99669.06
2023-04-30T08:45:28.722Z,99673.81
2023-04-30T08:46:33.749Z,99672.13
2023-04-30T08:47:36.804Z,99668.91
2023-04-30T08:48:40.890Z,99673.59
2023-04-30T08:49:43.794Z,99677.84
2023-04-30T08:50:45.920Z,99680.50
2023-04-30T08:51:47.854Z,99677.62
2023-04-30T08:52:49.940Z,99678.03
2023-04-30T08:53:56.639Z,99676.69
2023-04-30T08:55:01.362Z,99667.84
2023-04-30T08:56:03.930Z,99674.72
2023-04-30T08:57:06.133Z,99668.28
2023-04-30T08:58:10.329Z,99670.59
2023-04-30T08:59:13.084Z,99670.69
2023-04-30T09:00:15.297Z,99675.19
2023-04-30T09:01:17.481Z,99672.44
2023-04-30T09:02:19.560Z,99674.69
2023-04-30T09:03:23.689Z,99671.47
2023-04-30T09:04:26.259Z,99668.50
2023-04-30T09:05:28.133Z,99673.19
2023-04-30T09:06:31.533Z,99680.13
2023-04-30T09:07:35.028Z,99670.63
2023-04-30T09:08:48.214Z,99668.19
2023-04-30T09:09:54.016Z,99674.31
2023-04-30T09:10:56.053Z,99667.50
2023-04-30T09:12:17.749Z,99668.13
2023-04-30T09:13:20.840Z,99674.03
2023-04-30T09:14:27.215Z,99678.59
2023-04-30T09:15:31.130Z,99674.63
2023-04-30T09:16:49.798Z,99675.72
2023-04-30T09:17:51.763Z,99669.72
2023-04-30T09:18:53.767Z,99672.28
2023-04-30T09:20:07.533Z,99663.00
2023-04-30T09:21:09.833Z,99674.75
2023-04-30T09:22:23.344Z,99677.34
2023-04-30T09:23:25.732Z,99676.75
2023-04-30T09:24:45.717Z,99675.91
2023-04-30T09:25:47.548Z,99666.37
2023-04-30T09:26:51.065Z,99668.69
2023-04-30T09:28:24.557Z,99665.03
2023-04-30T09:29:36.851Z,99667.31
2023-04-30T09:30:41.768Z,99667.59
2023-04-30T09:31:47.228Z,99670.25
2023-04-30T09:32:56.999Z,99677.84
2023-04-30T09:33:59.006Z,99674.66
2023-04-30T09:35:00.951Z,99676.41
2023-04-30T09:36:09.515Z,99671.41
2023-04-30T09:37:11.899Z,99668.22
2023-04-30T09:38:31.431Z,99674.69
2023-04-30T09:39:33.884Z,99669.12
2023-04-30T09:40:40.764Z,99654.97
2023-04-30T09:41:43.094Z,99667.31
2023-04-30T09:43:00.976Z,99664.53
2023-04-30T09:44:04.058Z,99665.03
2023-04-30T09:45:06.650Z,99670.12
2023-04-30T09:46:08.547Z,99659.09
2023-04-30T09:47:19.269Z,99663.84
2023-04-30T09:48:22.974Z,99662.44
2023-04-30T09:49:27.043Z,99659.69
2023-04-30T09:50:38.158Z,99662.75
2023-04-30T09:51:57.341Z,99660.38
2023-04-30T09:53:07.696Z,99663.22
2023-04-30T09:54:11.798Z,99662.00
2023-04-30T09:55:13.990Z,99657.94
2023-04-30T09:56:28.848Z,99649.22
2023-04-30T09:57:32.392Z,99651.81
2023-04-30T09:58:41.125Z,99643.41
2023-04-30T09:59:46.216Z,99652.34
2023-04-30T10:00:51.960Z,99645.25
2023-04-30T10:01:55.503Z,99647.16
2023-04-30T10:02:59.836Z,99652.06
2023-04-30T10:04:02.524Z,99645.13
2023-04-30T10:05:04.870Z,99652.56
2023-04-30T10:06:07.880Z,99643.03
2023-04-30T10:07:18.763Z,99641.22
2023-04-30T10:08:34.116Z,99648.13
2023-04-30T10:09:50.984Z,99651.69
2023-04-30T10:10:59.712Z,99645.78
2023-04-30T10:12:03.957Z,99641.47
2023-04-30T10:13:11.623Z,99648.00
2023-04-30T10:14:16.318Z,99645.75
2023-04-30T10:15:24.788Z,99650.00
2023-04-30T10:16:55.016Z,99644.84
2023-04-30T10:18:02.357Z,99651.72
2023-04-30T10:19:13.993Z,99649.81
2023-04-30T10:20:18.033Z,99654.88
2023-04-30T10:21:23.183Z,99648.38
2023-04-30T10:22:25.967Z,99645.97
2023-04-30T10:23:28.001Z,99640.97
2023-04-30T10:24:30.631Z,99634.13
2023-04-30T10:25:32.979Z,99636.66
2023-04-30T10:26:35.359Z,99632.16
2023-04-30T10:27:37.823Z,99638.62
2023-04-30T10:28:40.838Z,99633.44
2023-04-30T10:29:43.381Z,99638.59
2023-04-30T10:30:45.433Z,99639.09
2023-04-30T10:31:50.026Z,99629.09
2023-04-30T10:33:04.188Z,99628.03
2023-04-30T10:34:06.073Z,99635.50
2023-04-30T10:35:20.798Z,99632.63
2023-04-30T10:36:44.813Z,99627.53
2023-04-30T10:37:53.830Z,99632.47
2023-04-30T10:38:56.088Z,99635.59
2023-04-30T10:39:57.931Z,99629.56
2023-04-30T10:41:01.481Z,99640.03
2023-04-30T10:42:05.455Z,99637.53
2023-04-30T10:43:07.381Z,99634.81
2023-04-30T10:44:09.345Z,99638.88
2023-04-30T10:45:11.698Z,99635.13
2023-04-30T10:46:22.769Z,99634.00
2023-04-30T10:47:30.310Z,99627.78
2023-04-30T10:48:35.905Z,99632.75
2023-04-30T10:49:37.949Z,99636.03
2023-04-30T10:50:44.336Z,99625.28
2023-04-30T10:51:51.716Z,99623.66
2023-04-30T10:53:04.218Z,99627.91
2023-04-30T10:54:07.570Z,99629.41
2023-04-30T10:55:10.013Z,99624.75
2023-04-30T10:56:12.051Z,99628.88
2023-04-30T10:57:17.705Z,99619.81
2023-04-30T10:58:25.858Z,99619.16
2023-04-30T10:59:28.672Z,99617.12
2023-04-30T11:00:30.991Z,99624.34
2023-04-30T11:02:00.248Z,99615.34
2023-04-30T11:03:05.663Z,99617.09
2023-04-30T11:04:11.781Z,99618.25
2023-04-30T11:05:15.689Z,99625.28
2023-04-30T11:06:21.780Z,99615.66
2023-04-30T11:07:26.430Z,99615.53
2023-04-30T11:08:39.176Z,99615.97
2023-04-30T11:09:48.292Z,99619.63
2023-04-30T11:11:05.153Z,99619.28
2023-04-30T11:12:30.637Z,99624.12
2023-04-30T11:13:57.858Z,99624.34
2023-04-30T11:15:27.588Z,99625.41
2023-04-30T11:16:31.642Z,99624.88
2023-04-30T11:17:34.339Z,99625.38
2023-04-30T11:18:46.405Z,99623.16
2023-04-30T11:19:54.037Z,99624.06
2023-04-30T11:20:57.811Z,99616.41
2023-04-30T11:22:05.517Z,99626.94
2023-04-30T11:23:24.984Z,99627.41
2023-04-30T11:24:58.836Z,99625.22
2023-04-30T11:26:01.370Z,99624.12
2023-04-30T11:27:05.597Z,99626.50
2023-04-30T11:28:08.962Z,99624.25
2023-04-30T11:29:11.250Z,99621.13
2023-04-30T11:30:16.003Z,99621.63
2023-04-30T11:31:18.897Z,99633.13
2023-04-30T11:32:23.878Z,99629.41
2023-04-30T11:33:28.084Z,99621.81
2023-04-30T11:34:31.000Z,99631.19
2023-04-30T11:35:33.932Z,99626.84
2023-04-30T11:36:36.722Z,99628.81
2023-04-30T11:37:45.823Z,99623.34
2023-04-30T11:38:48.089Z,99616.41
2023-04-30T11:39:51.190Z,99629.09
2023-04-30T11:40:55.085Z,99620.13
2023-04-30T11:41:58.050Z,99623.19
2023-04-30T11:42:59.899Z,99621.50
2023-04-30T11:44:02.089Z,99617.00
2023-04-30T11:45:06.798Z,99625.09
2023-04-30T11:46:18.287Z,99629.84
2023-04-30T11:47:20.174Z,99624.72
2023-04-30T11:48:22.219Z,99625.13
2023-04-30T11:49:24.149Z,99631.22
2023-04-30T11:50:33.666Z,99626.66
2023-04-30T11:51:36.670Z,99629.41
2023-04-30T11:52:39.551Z,99630.00
2023-04-30T11:53:42.015Z,99622.53
2023-04-30T11:54:43.943Z,99624.41
2023-04-30T11:55:45.846Z,99630.38
2023-04-30T11:56:49.080Z,99621.69
2023-04-30T11:57:56.084Z,99629.81
2023-04-30T11:58:58.018Z,99633.78
2023-04-30T12:00:10.215Z,99627.78
2023-04-30T12:01:13.575Z,99631.47
2023-04-30T12:02:16.893Z,99633.63
2023-04-30T12:03:19.281Z,99632.75
2023-04-30T12:04:22.724Z,99629.91
2023-04-30T12:05:26.800Z,99631.38
2023-04-30T12:06:29.871Z,99624.38
2023-04-30T12:07:32.179Z,99638.88
2023-04-30T12:08:34.373Z,99637.72
2023-04-30T12:09:57.107Z,99633.91
2023-04-30T12:10:59.472Z,99641.69
2023-04-30T12:12:02.580Z,99636.06
2023-04-30T12:13:04.425Z,99642.31
2023-04-30T12:14:12.615Z,99633.81
2023-04-30T12:15:27.347Z,99636.13
2023-04-30T12:16:46.090Z,99643.44
2023-04-30T12:17:48.325Z,99638.31
2023-04-30T12:18:52.769Z,99634.66
2023-04-30T12:19:55.829Z,99637.03
2023-04-30T12:20:58.502Z,99631.19
2023-04-30T12:22:00.578Z,99628.53
2023-04-30T12:23:02.886Z,99630.34
2023-04-30T12:24:05.058Z,99629.59
2023-04-30T12:25:10.012Z,99630.16
2023-04-30T12:26:12.134Z,99627.13
2023-04-30T12:27:15.138Z,99626.66
2023-04-30T12:28:17.734Z,99627.09
2023-04-30T12:29:19.697Z,99627.66
2023-04-30T12:30:23.900Z,99628.75
2023-04-30T12:31:25.874Z,99619.19
2023-04-30T12:32:27.875Z,99616.81
2023-04-30T12:33:31.550Z,99619.19
2023-04-30T12:34:34.020Z,99618.75
2023-04-30T12:35:36.047Z,99620.66